sensor_id;sensor_type;location;lat;lon;timestamp;temperature;humidity
53146;DHT22;39042;53.150;5.898;2023-04-30T00:01:00;6.80;99.90
53146;DHT22;39042;53.150;5.898;2023-04-30T00:03:25;6.80;99.90
53146;DHT22;39042;53.150;5.898;2023-04-30T00:05:51;6.80;99.90
53146;DHT22;39042;53.150;5.898;2023-04-30T00:08:17;6.70;99.90
53146;DHT22;39042;53.150;5.898;2023-04-30T00:10:43;6.70;99.90
53146;DHT22;39042;53.150;5.898;2023-04-30T00:13:09;6.70;99.90
53146;DHT22;39042;53.150;5.898;2023-04-30T00:15:35;6.60;99.90
53146;DHT22;39042;53.150;5.898;2023-04-30T00:18:01;6.60;99.90
53146;DHT22;39042;53.150;5.898;2023-04-30T00:20:27;6.60;99.90
53146;DHT22;39042;53.150;5.898;2023-04-30T00:22:53;6.50;99.90
53146;DHT22;39042;53.150;5.898;2023-04-30T00:25:19;6.50;99.90
53146;DHT22;39042;53.150;5.898;2023-04-30T00:27:45;6.50;99.90
53146;DHT22;39042;53.150;5.898;2023-04-30T00:30:11;6.40;99.90
53146;DHT22;39042;53.150;5.898;2023-04-30T00:32:37;6.40;99.90
53146;DHT22;39042;53.150;5.898;2023-04-30T00:35:03;6.40;99.90
53146;DHT22;39042;53.150;5.898;2023-04-30T00:37:29;6.30;99.90
53146;DHT22;39042;53.150;5.898;2023-04-30T00:39:55;6.30;99.90
53146;DHT22;39042;53.150;5.898;2023-04-30T00:42:21;6.30;99.90
53146;DHT22;39042;53.150;5.898;2023-04-30T00:44:46;6.30;99.90
53146;DHT22;39042;53.150;5.898;2023-04-30T00:47:12;6.30;99.90
53146;DHT22;39042;53.150;5.898;2023-04-30T00:49:38;6.30;99.90
53146;DHT22;39042;53.150;5.898;2023-04-30T00:52:04;6.30;99.90
53146;DHT22;39042;53.150;5.898;2023-04-30T00:54:30;6.30;99.90
53146;DHT22;39042;53.150;5.898;2023-04-30T00:56:57;6.30;99.90
53146;DHT22;39042;53.150;5.898;2023-04-30T00:59:23;6.30;99.90
53146;DHT22;39042;53.150;5.898;2023-04-30T01:01:50;6.40;99.90
53146;DHT22;39042;53.150;5.898;2023-04-30T01:04:16;6.40;99.90
53146;DHT22;39042;53.150;5.898;2023-04-30T01:06:42;6.40;99.90
53146;DHT22;39042;53.150;5.898;2023-04-30T01:09:08;6.50;99.90
53146;DHT22;39042;53.150;5.898;2023-04-30T01:16:53;6.50;99.90
53146;DHT22;39042;53.150;5.898;2023-04-30T01:19:34;6.60;99.90
53146;DHT22;39042;53.150;5.898;2023-04-30T01:22:03;6.60;99.90
53146;DHT22;39042;53.150;5.898;2023-04-30T01:30:17;6.70;99.90
53146;DHT22;39042;53.150;5.898;2023-04-30T01:32:43;6.70;99.90
53146;DHT22;39042;53.150;5.898;2023-04-30T01:35:09;6.70;99.90
53146;DHT22;39042;53.150;5.898;2023-04-30T01:40:39;6.80;99.90
53146;DHT22;39042;53.150;5.898;2023-04-30T01:43:32;6.80;99.90
53146;DHT22;39042;53.150;5.898;2023-04-30T01:48:52;6.90;99.90
53146;DHT22;39042;53.150;5.898;2023-04-30T01:51:39;6.90;99.90
53146;DHT22;39042;53.150;5.898;2023-04-30T01:57:02;7.00;99.90
53146;DHT22;39042;53.150;5.898;2023-04-30T01:59:35;7.00;99.90
53146;DHT22;39042;53.150;5.898;2023-04-30T02:02:03;7.00;99.90
53146;DHT22;39042;53.150;5.898;2023-04-30T02:04:29;7.00;99.90
53146;DHT22;39042;53.150;5.898;2023-04-30T02:06:55;7.00;99.90
53146;DHT22;39042;53.150;5.898;2023-04-30T02:09:23;7.00;99.90
53146;DHT22;39042;53.150;5.898;2023-04-30T02:11:49;7.00;99.90
53146;DHT22;39042;53.150;5.898;2023-04-30T02:14:15;7.00;99.90
53146;DHT22;39042;53.150;5.898;2023-04-30T02:16:41;7.00;99.90
53146;DHT22;39042;53.150;5.898;2023-04-30T02:19:17;7.00;99.90
53146;DHT22;39042;53.150;5.898;2023-04-30T02:21:42;7.10;99.90
53146;DHT22;39042;53.150;5.898;2023-04-30T02:24:08;7.10;99.90
53146;DHT22;39042;53.150;5.898;2023-04-30T02:26:34;7.10;99.90
53146;DHT22;39042;53.150;5.898;2023-04-30T02:29:00;7.10;99.90
53146;DHT22;39042;53.150;5.898;2023-04-30T02:31:26;7.10;99.90
53146;DHT22;39042;53.150;5.898;2023-04-30T02:33:51;7.20;99.90
53146;DHT22;39042;53.150;5.898;2023-04-30T02:36:17;7.20;99.90
53146;DHT22;39042;53.150;5.898;2023-04-30T02:38:43;7.20;99.90
53146;DHT22;39042;53.150;5.898;2023-04-30T02:41:09;7.20;99.90
53146;DHT22;39042;53.150;5.898;2023-04-30T02:43:34;7.20;99.90
53146;DHT22;39042;53.150;5.898;2023-04-30T02:46:00;7.20;99.90
53146;DHT22;39042;53.150;5.898;2023-04-30T02:48:26;7.20;99.90
53146;DHT22;39042;53.150;5.898;2023-04-30T02:50:52;7.20;99.90
53146;DHT22;39042;53.150;5.898;2023-04-30T02:53:18;7.20;99.90
53146;DHT22;39042;53.150;5.898;2023-04-30T02:55:43;7.20;99.90
53146;DHT22;39042;53.150;5.898;2023-04-30T02:58:09;7.30;99.90
53146;DHT22;39042;53.150;5.898;2023-04-30T03:00:35;7.30;99.90
53146;DHT22;39042;53.150;5.898;2023-04-30T03:03:01;7.20;99.90
53146;DHT22;39042;53.150;5.898;2023-04-30T03:05:27;7.20;99.90
53146;DHT22;39042;53.150;5.898;2023-04-30T03:07:53;7.20;99.90
53146;DHT22;39042;53.150;5.898;2023-04-30T03:10:19;7.20;99.90
53146;DHT22;39042;53.150;5.898;2023-04-30T03:12:44;7.20;99.90
53146;DHT22;39042;53.150;5.898;2023-04-30T03:15:10;7.10;99.90
53146;DHT22;39042;53.150;5.898;2023-04-30T03:17:36;7.10;99.90
53146;DHT22;39042;53.150;5.898;2023-04-30T03:20:02;7.00;99.90
53146;DHT22;39042;53.150;5.898;2023-04-30T03:22:29;7.00;99.90
53146;DHT22;39042;53.150;5.898;2023-04-30T03:24:55;6.90;99.90
53146;DHT22;39042;53.150;5.898;2023-04-30T03:27:20;6.80;99.90
53146;DHT22;39042;53.150;5.898;2023-04-30T03:29:47;6.80;99.90
53146;DHT22;39042;53.150;5.898;2023-04-30T03:32:13;6.80;99.90
53146;DHT22;39042;53.150;5.898;2023-04-30T03:34:39;6.70;99.90
53146;DHT22;39042;53.150;5.898;2023-04-30T03:37:05;6.70;99.90
53146;DHT22;39042;53.150;5.898;2023-04-30T03:39:30;6.60;99.90
53146;DHT22;39042;53.150;5.898;2023-04-30T03:41:56;6.60;99.90
53146;DHT22;39042;53.150;5.898;2023-04-30T03:44:22;6.50;99.90
53146;DHT22;39042;53.150;5.898;2023-04-30T03:46:48;6.40;99.90
53146;DHT22;39042;53.150;5.898;2023-04-30T03:49:14;6.40;99.90
53146;DHT22;39042;53.150;5.898;2023-04-30T03:51:40;6.40;99.90
53146;DHT22;39042;53.150;5.898;2023-04-30T03:54:07;6.30;99.90
53146;DHT22;39042;53.150;5.898;2023-04-30T03:56:33;6.20;99.90
53146;DHT22;39042;53.150;5.898;2023-04-30T03:58:59;6.20;99.90
53146;DHT22;39042;53.150;5.898;2023-04-30T04:01:26;6.20;99.90
53146;DHT22;39042;53.150;5.898;2023-04-30T04:03:52;6.10;99.90
53146;DHT22;39042;53.150;5.898;2023-04-30T04:06:18;6.00;99.90
53146;DHT22;39042;53.150;5.898;2023-04-30T04:08:45;6.00;99.90
53146;DHT22;39042;53.150;5.898;2023-04-30T04:11:11;5.90;99.90
53146;DHT22;39042;53.150;5.898;2023-04-30T04:13:37;5.90;99.90
53146;DHT22;39042;53.150;5.898;2023-04-30T04:16:03;5.90;99.90
53146;DHT22;39042;53.150;5.898;2023-04-30T04:18:30;5.90;99.90
53146;DHT22;39042;53.150;5.898;2023-04-30T04:20:58;5.90;99.90
53146;DHT22;39042;53.150;5.898;2023-04-30T04:23:23;5.90;99.90
53146;DHT22;39042;53.150;5.898;2023-04-30T04:25:49;5.90;99.90
53146;DHT22;39042;53.150;5.898;2023-04-30T04:28:15;5.90;99.90
53146;DHT22;39042;53.150;5.898;2023-04-30T04:30:42;5.90;99.90
53146;DHT22;39042;53.150;5.898;2023-04-30T04:33:08;5.90;99.90
53146;DHT22;39042;53.150;5.898;2023-04-30T04:35:36;5.90;99.90
53146;DHT22;39042;53.150;5.898;2023-04-30T04:38:02;5.90;99.90
53146;DHT22;39042;53.150;5.898;2023-04-30T04:40:29;5.90;99.90
53146;DHT22;39042;53.150;5.898;2023-04-30T04:42:55;6.00;99.90
53146;DHT22;39042;53.150;5.898;2023-04-30T04:45:21;6.00;99.90
53146;DHT22;39042;53.150;5.898;2023-04-30T04:47:48;6.10;99.90
53146;DHT22;39042;53.150;5.898;2023-04-30T04:50:14;6.10;99.90
53146;DHT22;39042;53.150;5.898;2023-04-30T04:52:40;6.20;99.90
53146;DHT22;39042;53.150;5.898;2023-04-30T04:55:06;6.20;99.90
53146;DHT22;39042;53.150;5.898;2023-04-30T04:57:32;6.20;99.90
53146;DHT22;39042;53.150;5.898;2023-04-30T04:59:58;6.30;99.90
53146;DHT22;39042;53.150;5.898;2023-04-30T05:02:24;6.30;99.90
53146;DHT22;39042;53.150;5.898;2023-04-30T05:04:50;6.40;99.90
53146;DHT22;39042;53.150;5.898;2023-04-30T05:07:17;6.50;99.90
53146;DHT22;39042;53.150;5.898;2023-04-30T05:09:46;6.50;99.90
53146;DHT22;39042;53.150;5.898;2023-04-30T05:12:15;6.60;99.90
53146;DHT22;39042;53.150;5.898;2023-04-30T05:14:41;6.70;99.90
53146;DHT22;39042;53.150;5.898;2023-04-30T05:17:07;6.80;99.90
53146;DHT22;39042;53.150;5.898;2023-04-30T05:19:33;6.80;99.90
53146;DHT22;39042;53.150;5.898;2023-04-30T05:21:59;6.90;99.90
53146;DHT22;39042;53.150;5.898;2023-04-30T05:24:27;6.90;99.90
53146;DHT22;39042;53.150;5.898;2023-04-30T05:26:53;6.90;99.90
53146;DHT22;39042;53.150;5.898;2023-04-30T05:29:18;7.00;99.90
53146;DHT22;39042;53.150;5.898;2023-04-30T05:31:44;7.00;99.90
53146;DHT22;39042;53.150;5.898;2023-04-30T05:34:10;7.00;99.90
53146;DHT22;39042;53.150;5.898;2023-04-30T05:36:36;7.00;99.90
53146;DHT22;39042;53.150;5.898;2023-04-30T05:39:02;7.00;99.90
53146;DHT22;39042;53.150;5.898;2023-04-30T05:41:29;7.10;99.90
53146;DHT22;39042;53.150;5.898;2023-04-30T05:43:54;7.20;99.90
53146;DHT22;39042;53.150;5.898;2023-04-30T05:46:20;7.20;99.90
53146;DHT22;39042;53.150;5.898;2023-04-30T05:48:46;7.30;99.90
53146;DHT22;39042;53.150;5.898;2023-04-30T05:51:12;7.40;99.90
53146;DHT22;39042;53.150;5.898;2023-04-30T05:53:38;7.40;99.90
53146;DHT22;39042;53.150;5.898;2023-04-30T05:56:04;7.50;99.90
53146;DHT22;39042;53.150;5.898;2023-04-30T05:58:30;7.60;99.90
53146;DHT22;39042;53.150;5.898;2023-04-30T06:00:56;7.60;99.90
53146;DHT22;39042;53.150;5.898;2023-04-30T06:03:23;7.70;99.90
53146;DHT22;39042;53.150;5.898;2023-04-30T06:05:49;7.80;99.90
53146;DHT22;39042;53.150;5.898;2023-04-30T06:08:15;7.90;99.90
53146;DHT22;39042;53.150;5.898;2023-04-30T06:10:41;8.00;99.90
53146;DHT22;39042;53.150;5.898;2023-04-30T06:13:06;8.10;99.90
53146;DHT22;39042;53.150;5.898;2023-04-30T06:15:32;8.10;99.90
53146;DHT22;39042;53.150;5.898;2023-04-30T06:17:58;8.20;99.90
53146;DHT22;39042;53.150;5.898;2023-04-30T06:20:24;8.30;99.90
53146;DHT22;39042;53.150;5.898;2023-04-30T06:22:51;8.40;99.90
53146;DHT22;39042;53.150;5.898;2023-04-30T06:25:17;8.60;99.90
53146;DHT22;39042;53.150;5.898;2023-04-30T06:27:45;8.60;99.90
53146;DHT22;39042;53.150;5.898;2023-04-30T06:30:11;8.80;99.90
53146;DHT22;39042;53.150;5.898;2023-04-30T06:32:37;8.90;99.90
53146;DHT22;39042;53.150;5.898;2023-04-30T06:35:03;9.00;99.90
53146;DHT22;39042;53.150;5.898;2023-04-30T06:37:29;9.00;99.90
53146;DHT22;39042;53.150;5.898;2023-04-30T06:40:00;9.10;99.90
53146;DHT22;39042;53.150;5.898;2023-04-30T06:42:26;9.30;99.90
53146;DHT22;39042;53.150;5.898;2023-04-30T06:44:52;9.40;99.90
53146;DHT22;39042;53.150;5.898;2023-04-30T06:47:18;9.50;99.90
53146;DHT22;39042;53.150;5.898;2023-04-30T06:49:43;9.60;99.90
53146;DHT22;39042;53.150;5.898;2023-04-30T06:52:09;9.70;99.90
53146;DHT22;39042;53.150;5.898;2023-04-30T06:54:35;9.70;99.90
53146;DHT22;39042;53.150;5.898;2023-04-30T06:57:01;9.80;99.90
53146;DHT22;39042;53.150;5.898;2023-04-30T06:59:28;9.90;99.90
53146;DHT22;39042;53.150;5.898;2023-04-30T07:01:53;10.10;99.90
53146;DHT22;39042;53.150;5.898;2023-04-30T07:04:19;10.20;99.90
53146;DHT22;39042;53.150;5.898;2023-04-30T07:06:45;10.30;99.90
53146;DHT22;39042;53.150;5.898;2023-04-30T07:09:11;10.40;99.90
53146;DHT22;39042;53.150;5.898;2023-04-30T07:11:37;10.50;99.90
53146;DHT22;39042;53.150;5.898;2023-04-30T07:14:04;10.70;99.90
53146;DHT22;39042;53.150;5.898;2023-04-30T07:16:31;10.80;99.90
53146;DHT22;39042;53.150;5.898;2023-04-30T07:18:57;10.90;99.90
53146;DHT22;39042;53.150;5.898;2023-04-30T07:21:24;10.90;99.90
53146;DHT22;39042;53.150;5.898;2023-04-30T07:23:50;11.00;99.90
53146;DHT22;39042;53.150;5.898;2023-04-30T07:26:16;11.00;99.90
53146;DHT22;39042;53.150;5.898;2023-04-30T07:28:42;11.10;99.90
53146;DHT22;39042;53.150;5.898;2023-04-30T07:31:08;11.20;99.90
53146;DHT22;39042;53.150;5.898;2023-04-30T07:33:33;11.30;99.90
53146;DHT22;39042;53.150;5.898;2023-04-30T07:35:59;11.40;99.90
53146;DHT22;39042;53.150;5.898;2023-04-30T07:38:25;11.60;99.90
53146;DHT22;39042;53.150;5.898;2023-04-30T07:40:51;11.70;99.90
53146;DHT22;39042;53.150;5.898;2023-04-30T07:43:17;11.90;99.90
53146;DHT22;39042;53.150;5.898;2023-04-30T07:45:42;12.00;99.90
53146;DHT22;39042;53.150;5.898;2023-04-30T07:48:09;12.10;99.90
53146;DHT22;39042;53.150;5.898;2023-04-30T07:50:34;12.20;99.90
53146;DHT22;39042;53.150;5.898;2023-04-30T07:53:01;12.20;99.90
53146;DHT22;39042;53.150;5.898;2023-04-30T07:55:27;12.30;99.90
53146;DHT22;39042;53.150;5.898;2023-04-30T07:57:53;12.40;99.90
53146;DHT22;39042;53.150;5.898;2023-04-30T08:00:19;12.60;99.90
53146;DHT22;39042;53.150;5.898;2023-04-30T08:02:45;12.60;99.90
53146;DHT22;39042;53.150;5.898;2023-04-30T08:05:12;12.80;99.90
53146;DHT22;39042;53.150;5.898;2023-04-30T08:07:38;12.90;99.90
53146;DHT22;39042;53.150;5.898;2023-04-30T08:10:05;13.10;99.90
53146;DHT22;39042;53.150;5.898;2023-04-30T08:12:30;13.30;99.90
53146;DHT22;39042;53.150;5.898;2023-04-30T08:15:01;13.40;99.90
53146;DHT22;39042;53.150;5.898;2023-04-30T08:17:28;13.50;99.90
53146;DHT22;39042;53.150;5.898;2023-04-30T08:19:54;13.40;99.90
53146;DHT22;39042;53.150;5.898;2023-04-30T08:22:20;13.40;99.90
53146;DHT22;39042;53.150;5.898;2023-04-30T08:24:46;13.40;99.90
53146;DHT22;39042;53.150;5.898;2023-04-30T08:27:11;13.30;99.90
53146;DHT22;39042;53.150;5.898;2023-04-30T08:29:37;13.30;99.90
53146;DHT22;39042;53.150;5.898;2023-04-30T08:32:03;13.40;99.90
53146;DHT22;39042;53.150;5.898;2023-04-30T08:34:30;13.50;99.90
53146;DHT22;39042;53.150;5.898;2023-04-30T08:36:56;13.50;99.90
53146;DHT22;39042;53.150;5.898;2023-04-30T08:39:23;13.70;99.90
53146;DHT22;39042;53.150;5.898;2023-04-30T08:41:56;13.80;99.90
53146;DHT22;39042;53.150;5.898;2023-04-30T08:44:22;13.90;99.90
53146;DHT22;39042;53.150;5.898;2023-04-30T08:46:53;14.00;99.90
53146;DHT22;39042;53.150;5.898;2023-04-30T08:49:22;14.20;99.90
53146;DHT22;39042;53.150;5.898;2023-04-30T08:51:49;14.20;99.90
53146;DHT22;39042;53.150;5.898;2023-04-30T08:54:16;14.30;99.90
53146;DHT22;39042;53.150;5.898;2023-04-30T08:56:43;14.30;99.90
53146;DHT22;39042;53.150;5.898;2023-04-30T08:59:11;14.20;99.90
53146;DHT22;39042;53.150;5.898;2023-04-30T09:01:37;14.30;99.90
53146;DHT22;39042;53.150;5.898;2023-04-30T09:04:04;14.40;99.90
53146;DHT22;39042;53.150;5.898;2023-04-30T09:06:30;14.60;99.90
53146;DHT22;39042;53.150;5.898;2023-04-30T09:08:56;14.60;99.90
53146;DHT22;39042;53.150;5.898;2023-04-30T09:11:29;14.70;99.90
53146;DHT22;39042;53.150;5.898;2023-04-30T09:14:00;14.80;99.90
53146;DHT22;39042;53.150;5.898;2023-04-30T09:16:27;15.00;99.90
53146;DHT22;39042;53.150;5.898;2023-04-30T09:18:57;15.00;99.90
53146;DHT22;39042;53.150;5.898;2023-04-30T09:21:34;14.90;99.90
53146;DHT22;39042;53.150;5.898;2023-04-30T09:24:02;14.70;99.90
53146;DHT22;39042;53.150;5.898;2023-04-30T09:26:33;14.70;99.90
53146;DHT22;39042;53.150;5.898;2023-04-30T09:29:00;14.80;99.90
53146;DHT22;39042;53.150;5.898;2023-04-30T09:31:35;14.70;99.90
53146;DHT22;39042;53.150;5.898;2023-04-30T09:34:03;14.80;99.90
53146;DHT22;39042;53.150;5.898;2023-04-30T09:36:29;14.80;99.90
53146;DHT22;39042;53.150;5.898;2023-04-30T09:39:04;14.90;99.90
53146;DHT22;39042;53.150;5.898;2023-04-30T09:41:30;14.80;99.90
53146;DHT22;39042;53.150;5.898;2023-04-30T09:44:02;14.90;99.90
53146;DHT22;39042;53.150;5.898;2023-04-30T09:46:33;15.00;99.90
53146;DHT22;39042;53.150;5.898;2023-04-30T09:49:01;15.00;99.90
53146;DHT22;39042;53.150;5.898;2023-04-30T09:51:27;15.00;99.90
53146;DHT22;39042;53.150;5.898;2023-04-30T09:53:54;15.10;99.90
53146;DHT22;39042;53.150;5.898;2023-04-30T09:56:24;15.00;99.90
53146;DHT22;39042;53.150;5.898;2023-04-30T09:58:53;15.00;99.90
53146;DHT22;39042;53.150;5.898;2023-04-30T10:01:20;15.00;99.90
53146;DHT22;39042;53.150;5.898;2023-04-30T10:03:47;14.90;99.90
53146;DHT22;39042;53.150;5.898;2023-04-30T10:06:14;14.80;99.90
53146;DHT22;39042;53.150;5.898;2023-04-30T10:08:42;14.70;99.90
53146;DHT22;39042;53.150;5.898;2023-04-30T10:11:12;14.70;99.90
53146;DHT22;39042;53.150;5.898;2023-04-30T10:19:33;14.50;99.90
53146;DHT22;39042;53.150;5.898;2023-04-30T10:22:00;14.50;99.90
53146;DHT22;39042;53.150;5.898;2023-04-30T10:24:26;14.50;99.90
53146;DHT22;39042;53.150;5.898;2023-04-30T10:26:53;14.40;99.90
53146;DHT22;39042;53.150;5.898;2023-04-30T10:29:20;14.30;99.90
53146;DHT22;39042;53.150;5.898;2023-04-30T10:31:47;14.20;99.90
53146;DHT22;39042;53.150;5.898;2023-04-30T10:34:44;14.30;99.90
53146;DHT22;39042;53.150;5.898;2023-04-30T10:37:23;14.30;99.90
53146;DHT22;39042;53.150;5.898;2023-04-30T10:39:52;14.30;99.90
53146;DHT22;39042;53.150;5.898;2023-04-30T10:42:18;14.30;99.90
53146;DHT22;39042;53.150;5.898;2023-04-30T10:44:44;14.30;99.90
53146;DHT22;39042;53.150;5.898;2023-04-30T10:47:10;14.30;99.90
53146;DHT22;39042;53.150;5.898;2023-04-30T10:49:36;14.30;99.90
53146;DHT22;39042;53.150;5.898;2023-04-30T10:52:03;14.30;99.90
53146;DHT22;39042;53.150;5.898;2023-04-30T10:54:36;14.30;99.90
53146;DHT22;39042;53.150;5.898;2023-04-30T10:57:13;14.30;99.90
53146;DHT22;39042;53.150;5.898;2023-04-30T14:20:48;16.40;99.90
53146;DHT22;39042;53.150;5.898;2023-04-30T14:23:13;16.40;99.90
53146;DHT22;39042;53.150;5.898;2023-04-30T14:25:40;16.50;99.90
53146;DHT22;39042;53.150;5.898;2023-04-30T14:28:06;16.50;99.90
53146;DHT22;39042;53.150;5.898;2023-04-30T14:30:32;16.60;99.90
53146;DHT22;39042;53.150;5.898;2023-04-30T14:32:57;16.70;99.90
53146;DHT22;39042;53.150;5.898;2023-04-30T14:35:23;16.80;99.90
53146;DHT22;39042;53.150;5.898;2023-04-30T14:37:49;16.70;99.90
53146;DHT22;39042;53.150;5.898;2023-04-30T14:40:15;16.70;99.90
53146;DHT22;39042;53.150;5.898;2023-04-30T14:42:40;16.70;99.90
53146;DHT22;39042;53.150;5.898;2023-04-30T14:45:07;16.80;99.90
53146;DHT22;39042;53.150;5.898;2023-04-30T14:47:33;16.80;99.90
53146;DHT22;39042;53.150;5.898;2023-04-30T14:49:59;16.80;99.90
53146;DHT22;39042;53.150;5.898;2023-04-30T14:52:26;16.90;99.90
53146;DHT22;39042;53.150;5.898;2023-04-30T14:54:52;17.10;99.90
53146;DHT22;39042;53.150;5.898;2023-04-30T14:57:18;17.00;99.90
53146;DHT22;39042;53.150;5.898;2023-04-30T14:59:44;17.00;99.90
53146;DHT22;39042;53.150;5.898;2023-04-30T15:02:10;17.00;99.90
53146;DHT22;39042;53.150;5.898;2023-04-30T15:04:35;17.00;99.90
53146;DHT22;39042;53.150;5.898;2023-04-30T15:07:01;17.00;99.90
53146;DHT22;39042;53.150;5.898;2023-04-30T15:09:27;16.90;99.90
53146;DHT22;39042;53.150;5.898;2023-04-30T15:11:53;16.80;99.90
53146;DHT22;39042;53.150;5.898;2023-04-30T15:14:19;16.80;99.90
53146;DHT22;39042;53.150;5.898;2023-04-30T15:16:44;16.90;99.90
53146;DHT22;39042;53.150;5.898;2023-04-30T15:19:11;16.90;99.90
53146;DHT22;39042;53.150;5.898;2023-04-30T15:21:36;16.80;99.90
53146;DHT22;39042;53.150;5.898;2023-04-30T15:24:02;16.90;99.90
53146;DHT22;39042;53.150;5.898;2023-04-30T15:26:28;17.10;99.90
53146;DHT22;39042;53.150;5.898;2023-04-30T15:28:55;17.10;99.90
53146;DHT22;39042;53.150;5.898;2023-04-30T15:31:21;17.10;99.90
53146;DHT22;39042;53.150;5.898;2023-04-30T15:33:47;17.10;99.90
53146;DHT22;39042;53.150;5.898;2023-04-30T15:36:12;17.20;99.90
53146;DHT22;39042;53.150;5.898;2023-04-30T15:38:38;17.30;99.90
53146;DHT22;39042;53.150;5.898;2023-04-30T15:41:04;17.30;99.90
53146;DHT22;39042;53.150;5.898;2023-04-30T15:43:30;17.40;99.90
53146;DHT22;39042;53.150;5.898;2023-04-30T15:45:56;17.50;99.90
53146;DHT22;39042;53.150;5.898;2023-04-30T15:48:22;17.60;99.90
53146;DHT22;39042;53.150;5.898;2023-04-30T15:50:48;17.70;99.90
53146;DHT22;39042;53.150;5.898;2023-04-30T15:53:15;17.90;99.90
53146;DHT22;39042;53.150;5.898;2023-04-30T15:55:41;17.90;99.90
53146;DHT22;39042;53.150;5.898;2023-04-30T15:58:07;18.00;99.90
53146;DHT22;39042;53.150;5.898;2023-04-30T16:00:33;18.10;99.90
53146;DHT22;39042;53.150;5.898;2023-04-30T16:02:59;18.20;99.90
53146;DHT22;39042;53.150;5.898;2023-04-30T16:05:25;18.30;99.90
53146;DHT22;39042;53.150;5.898;2023-04-30T16:07:51;18.40;99.90
53146;DHT22;39042;53.150;5.898;2023-04-30T16:10:18;18.40;99.90
53146;DHT22;39042;53.150;5.898;2023-04-30T16:12:44;18.40;99.30
53146;DHT22;39042;53.150;5.898;2023-04-30T16:15:10;18.40;99.20
53146;DHT22;39042;53.150;5.898;2023-04-30T16:17:36;18.40;99.20
53146;DHT22;39042;53.150;5.898;2023-04-30T16:20:02;18.40;99.40
53146;DHT22;39042;53.150;5.898;2023-04-30T16:22:28;18.40;99.50
53146;DHT22;39042;53.150;5.898;2023-04-30T16:24:54;18.30;99.40
53146;DHT22;39042;53.150;5.898;2023-04-30T16:27:20;18.30;99.30
53146;DHT22;39042;53.150;5.898;2023-04-30T16:29:46;18.20;99.70
53146;DHT22;39042;53.150;5.898;2023-04-30T16:32:12;18.10;99.50
53146;DHT22;39042;53.150;5.898;2023-04-30T16:34:38;18.10;99.20
53146;DHT22;39042;53.150;5.898;2023-04-30T16:37:03;18.10;99.10
53146;DHT22;39042;53.150;5.898;2023-04-30T16:39:32;18.00;99.10
53146;DHT22;39042;53.150;5.898;2023-04-30T16:41:57;17.90;99.20
53146;DHT22;39042;53.150;5.898;2023-04-30T16:44:23;17.80;99.20
53146;DHT22;39042;53.150;5.898;2023-04-30T16:46:49;17.80;99.20
53146;DHT22;39042;53.150;5.898;2023-04-30T16:49:15;17.80;99.50
53146;DHT22;39042;53.150;5.898;2023-04-30T16:51:41;17.80;99.40
53146;DHT22;39042;53.150;5.898;2023-04-30T16:54:07;17.90;99.40
53146;DHT22;39042;53.150;5.898;2023-04-30T16:56:32;17.90;99.10
53146;DHT22;39042;53.150;5.898;2023-04-30T16:58:58;18.00;99.20
53146;DHT22;39042;53.150;5.898;2023-04-30T17:01:24;18.10;99.30
53146;DHT22;39042;53.150;5.898;2023-04-30T17:03:49;18.10;99.40
53146;DHT22;39042;53.150;5.898;2023-04-30T17:06:16;18.20;99.00
53146;DHT22;39042;53.150;5.898;2023-04-30T17:08:42;18.30;98.80
53146;DHT22;39042;53.150;5.898;2023-04-30T17:11:07;18.30;98.90
53146;DHT22;39042;53.150;5.898;2023-04-30T17:13:33;18.40;99.30
53146;DHT22;39042;53.150;5.898;2023-04-30T17:16:02;18.40;99.30
53146;DHT22;39042;53.150;5.898;2023-04-30T17:18:28;18.50;99.20
53146;DHT22;39042;53.150;5.898;2023-04-30T17:20:53;18.60;99.10
53146;DHT22;39042;53.150;5.898;2023-04-30T17:23:19;18.70;98.90
53146;DHT22;39042;53.150;5.898;2023-04-30T17:25:46;18.70;99.00
53146;DHT22;39042;53.150;5.898;2023-04-30T17:28:11;18.90;98.80
53146;DHT22;39042;53.150;5.898;2023-04-30T17:30:37;18.90;98.90
53146;DHT22;39042;53.150;5.898;2023-04-30T17:33:03;18.90;98.50
53146;DHT22;39042;53.150;5.898;2023-04-30T17:35:30;18.90;98.50
53146;DHT22;39042;53.150;5.898;2023-04-30T17:37:56;18.90;98.20
53146;DHT22;39042;53.150;5.898;2023-04-30T17:40:21;18.80;98.50
53146;DHT22;39042;53.150;5.898;2023-04-30T17:42:47;18.70;98.40
53146;DHT22;39042;53.150;5.898;2023-04-30T17:45:16;18.70;98.40
53146;DHT22;39042;53.150;5.898;2023-04-30T17:47:42;18.70;98.40
53146;DHT22;39042;53.150;5.898;2023-04-30T17:50:07;18.70;98.40
53146;DHT22;39042;53.150;5.898;2023-04-30T17:52:35;18.50;98.30
53146;DHT22;39042;53.150;5.898;2023-04-30T17:55:09;18.50;98.40
53146;DHT22;39042;53.150;5.898;2023-04-30T17:57:36;18.40;98.30
53146;DHT22;39042;53.150;5.898;2023-04-30T18:00:02;18.20;98.20
53146;DHT22;39042;53.150;5.898;2023-04-30T18:02:38;18.10;98.30
53146;DHT22;39042;53.150;5.898;2023-04-30T18:05:04;17.90;98.40
53146;DHT22;39042;53.150;5.898;2023-04-30T18:07:30;17.80;98.60
53146;DHT22;39042;53.150;5.898;2023-04-30T18:09:56;17.70;98.70
53146;DHT22;39042;53.150;5.898;2023-04-30T18:12:24;17.50;98.70
53146;DHT22;39042;53.150;5.898;2023-04-30T18:14:50;17.40;99.00
53146;DHT22;39042;53.150;5.898;2023-04-30T18:17:15;17.30;99.20
53146;DHT22;39042;53.150;5.898;2023-04-30T18:19:41;17.10;99.40
53146;DHT22;39042;53.150;5.898;2023-04-30T18:22:13;17.00;99.70
53146;DHT22;39042;53.150;5.898;2023-04-30T18:24:40;16.80;99.90
53146;DHT22;39042;53.150;5.898;2023-04-30T18:27:07;16.70;99.90
53146;DHT22;39042;53.150;5.898;2023-04-30T18:29:33;16.50;99.90
53146;DHT22;39042;53.150;5.898;2023-04-30T18:31:59;16.40;99.90
53146;DHT22;39042;53.150;5.898;2023-04-30T18:34:25;16.20;99.90
53146;DHT22;39042;53.150;5.898;2023-04-30T18:36:53;16.10;99.90
53146;DHT22;39042;53.150;5.898;2023-04-30T18:39:18;16.00;99.90
53146;DHT22;39042;53.150;5.898;2023-04-30T18:41:46;15.80;99.90
53146;DHT22;39042;53.150;5.898;2023-04-30T18:44:12;15.60;99.90
53146;DHT22;39042;53.150;5.898;2023-04-30T18:46:38;15.50;99.90
53146;DHT22;39042;53.150;5.898;2023-04-30T18:49:04;15.30;99.90
53146;DHT22;39042;53.150;5.898;2023-04-30T18:51:30;15.00;99.90
53146;DHT22;39042;53.150;5.898;2023-04-30T18:53:59;14.60;99.90
53146;DHT22;39042;53.150;5.898;2023-04-30T18:56:27;14.20;99.90
53146;DHT22;39042;53.150;5.898;2023-04-30T18:58:53;14.00;99.90
53146;DHT22;39042;53.150;5.898;2023-04-30T19:01:19;13.70;99.90
53146;DHT22;39042;53.150;5.898;2023-04-30T19:03:46;13.60;99.90
53146;DHT22;39042;53.150;5.898;2023-04-30T19:06:12;13.40;99.90
53146;DHT22;39042;53.150;5.898;2023-04-30T19:08:38;13.20;99.90
53146;DHT22;39042;53.150;5.898;2023-04-30T19:11:04;13.10;99.90
53146;DHT22;39042;53.150;5.898;2023-04-30T19:13:30;13.00;99.90
53146;DHT22;39042;53.150;5.898;2023-04-30T19:15:56;12.90;99.90
53146;DHT22;39042;53.150;5.898;2023-04-30T19:18:21;12.70;99.90
53146;DHT22;39042;53.150;5.898;2023-04-30T19:20:56;12.60;99.90